Time;durP1;ratioP1;P1;durP2;ratioP2;P2;SDS_P1;SDS_P2;PMS_P1;PMS_P2;Temp;Humidity;BMP_temperature;BMP_pressure;BME280_temperature;BME280_humidity;BME280_pressure;Samples;Min_cycle;Max_cycle;Signal;HPM_P1;HPM_P2
2022/05/31 00:00:55;;;;;;;1.73;1.63;;;13.70;99.90;;;;;;4900747;29;20211;-84
2022/05/31 00:03:24;;;;;;;1.05;1.05;;;13.70;99.90;;;;;;4900262;29;20235;-84
2022/05/31 00:05:52;;;;;;;3.25;1.10;;;13.60;99.90;;;;;;4900549;29;20270;-84
2022/05/31 00:08:22;;;;;;;0.90;0.90;;;13.60;99.90;;;;;;4900710;29;20239;-84
2022/05/31 00:10:50;;;;;;;2.67;1.13;;;13.50;99.90;;;;;;4900604;29;20247;-84
2022/05/31 00:13:19;;;;;;;2.22;1.42;;;13.50;99.90;;;;;;4900628;29;20299;-84
2022/05/31 00:15:47;;;;;;;0.90;0.90;;;13.40;99.90;;;;;;4900398;29;20241;-84
2022/05/31 00:18:15;;;;;;;1.40;1.30;;;13.40;99.90;;;;;;4900128;29;20217;-84
2022/05/31 00:20:44;;;;;;;1.67;1.58;;;13.40;99.90;;;;;;4900343;29;20219;-84
2022/05/31 00:23:12;;;;;;;0.93;0.93;;;13.30;99.90;;;;;;4900231;29;20230;-84
2022/05/31 00:25:42;;;;;;;1.33;1.33;;;13.30;99.90;;;;;;4900450;29;20278;-84
2022/05/31 00:28:10;;;;;;;1.67;1.17;;;13.30;99.90;;;;;;4900138;29;20215;-84
2022/05/31 00:30:40;;;;;;;1.10;1.10;;;13.30;99.90;;;;;;4899823;29;20289;-84
2022/05/31 00:33:10;;;;;;;2.63;1.63;;;13.30;99.90;;;;;;4900346;29;20274;-84
2022/05/31 00:35:41;;;;;;;1.55;1.00;;;13.20;99.90;;;;;;4900438;29;20250;-84
2022/05/31 00:38:10;;;;;;;1.50;1.38;;;13.20;99.90;;;;;;4900555;29;20219;-84
2022/05/31 00:40:39;;;;;;;1.20;1.17;;;13.10;99.90;;;;;;4899825;29;20294;-84
2022/05/31 00:43:11;;;;;;;1.58;1.23;;;13.10;99.90;;;;;;4899861;29;20286;-84
2022/05/31 00:45:44;;;;;;;1.98;1.33;;;13.10;99.90;;;;;;4899588;29;20211;-84
2022/05/31 00:48:17;;;;;;;1.15;1.05;;;13.10;99.90;;;;;;4899348;29;20215;-84
2022/05/31 00:50:49;;;;;;;1.00;0.90;;;13.10;99.90;;;;;;4899438;29;20302;-84
2022/05/31 00:53:23;;;;;;;0.80;0.80;;;13.00;99.90;;;;;;4899776;29;20204;-84
2022/05/31 00:55:55;;;;;;;1.30;1.20;;;13.00;99.90;;;;;;4899703;29;20219;-84
2022/05/31 00:58:30;;;;;;;1.30;1.20;;;13.00;99.90;;;;;;4899408;29;20246;-84
2022/05/31 01:01:01;;;;;;;0.90;0.90;;;12.90;99.90;;;;;;4899317;29;20210;-84
2022/05/31 01:03:30;;;;;;;0.90;0.90;;;12.90;99.90;;;;;;4899608;29;20262;-81
2022/05/31 01:05:58;;;;;;;1.85;1.33;;;12.80;99.90;;;;;;4899580;29;20303;-82
2022/05/31 01:08:26;;;;;;;1.17;1.08;;;12.80;99.90;;;;;;4899685;29;20290;-82
2022/05/31 01:10:55;;;;;;;0.70;0.70;;;12.80;99.90;;;;;;4899561;29;20282;-82
2022/05/31 01:13:24;;;;;;;1.30;1.20;;;12.80;99.90;;;;;;4899331;29;20298;-82
2022/05/31 01:16:03;;;;;;;1.10;1.10;;;12.80;99.90;;;;;;4899455;29;20212;-81
2022/05/31 01:18:32;;;;;;;1.08;1.08;;;12.70;99.90;;;;;;4899217;29;20238;-82
2022/05/31 01:21:01;;;;;;;0.90;0.90;;;12.70;99.90;;;;;;4899256;29;20215;-81
2022/05/31 01:23:36;;;;;;;1.55;1.45;;;12.70;99.90;;;;;;4899129;29;20262;-81
2022/05/31 01:26:12;;;;;;;1.20;1.20;;;12.70;99.90;;;;;;4899354;29;20302;-81
2022/05/31 01:28:50;;;;;;;0.95;0.95;;;12.60;99.90;;;;;;4898778;29;20378;-82
2022/05/31 01:31:25;;;;;;;0.93;0.93;;;12.60;99.90;;;;;;4899360;29;20242;-81
2022/05/31 01:33:58;;;;;;;0.80;0.80;;;12.50;99.90;;;;;;4899157;29;20216;-81
2022/05/31 01:36:33;;;;;;;1.05;1.00;;;12.50;99.90;;;;;;4899045;29;20268;-81
2022/05/31 01:39:05;;;;;;;1.30;1.20;;;12.50;99.90;;;;;;4899043;29;20313;-81
2022/05/31 01:41:39;;;;;;;1.05;0.95;;;12.40;99.90;;;;;;4898879;29;20302;-81
2022/05/31 01:44:11;;;;;;;1.45;1.30;;;12.40;99.90;;;;;;4898928;29;20234;-82
2022/05/31 01:46:41;;;;;;;0.73;0.73;;;12.40;99.90;;;;;;4898999;29;20226;-81
2022/05/31 01:49:13;;;;;;;1.00;1.00;;;12.40;99.90;;;;;;4899055;29;20303;-81
2022/05/31 01:51:45;;;;;;;1.98;1.58;;;12.40;99.90;;;;;;4898445;29;20211;-81
2022/05/31 01:54:15;;;;;;;1.33;1.23;;;12.40;99.90;;;;;;4898439;29;20284;-82
2022/05/31 01:56:46;;;;;;;0.88;0.88;;;12.40;99.90;;;;;;4898815;29;20207;-81
2022/05/31 01:59:16;;;;;;;1.20;1.13;;;12.40;99.90;;;;;;4898254;29;20239;-81
2022/05/31 02:01:46;;;;;;;0.82;0.82;;;12.30;99.90;;;;;;4897787;29;20219;-81
2022/05/31 02:04:17;;;;;;;0.90;0.90;;;12.30;99.90;;;;;;4898343;29;20315;-82
2022/05/31 02:06:47;;;;;;;0.82;0.82;;;12.30;99.90;;;;;;4898266;29;20247;-81
2022/05/31 02:09:16;;;;;;;0.90;0.90;;;12.30;99.90;;;;;;4898720;29;20322;-81
2022/05/31 02:11:44;;;;;;;1.25;1.15;;;12.20;99.90;;;;;;4898207;29;20272;-81
2022/05/31 02:14:13;;;;;;;1.08;1.00;;;12.30;99.90;;;;;;4898341;29;20227;-82
2022/05/31 02:16:44;;;;;;;0.90;0.90;;;12.30;99.90;;;;;;4898064;29;20290;-81
2022/05/31 02:19:25;;;;;;;1.35;1.25;;;12.20;99.90;;;;;;4898299;29;20245;-81
2022/05/31 02:21:57;;;;;;;1.40;1.30;;;12.20;99.90;;;;;;4898110;29;20278;-81
2022/05/31 02:24:27;;;;;;;1.52;1.42;;;12.20;99.90;;;;;;4898153;29;20242;-81
2022/05/31 02:26:56;;;;;;;1.35;1.25;;;12.20;99.90;;;;;;4898395;29;20211;-81
2022/05/31 02:29:28;;;;;;;1.02;1.02;;;12.20;99.90;;;;;;4897836;29;20249;-81
2022/05/31 02:31:58;;;;;;;1.17;1.13;;;12.30;99.90;;;;;;4897806;29;20302;-82
2022/05/31 02:34:32;;;;;;;1.02;1.02;;;12.30;99.90;;;;;;4897850;29;20245;-82
2022/05/31 02:37:01;;;;;;;1.30;1.23;;;12.30;99.90;;;;;;4898188;29;20235;-82
2022/05/31 02:39:30;;;;;;;1.02;1.02;;;12.30;99.90;;;;;;4898209;29;20227;-82
2022/05/31 02:41:58;;;;;;;0.82;0.82;;;12.20;99.90;;;;;;4897688;29;20211;-81
2022/05/31 02:44:26;;;;;;;1.08;1.00;;;12.30;99.90;;;;;;4897761;29;20243;-81
2022/05/31 02:46:57;;;;;;;1.52;1.13;;;12.20;99.90;;;;;;4898119;29;20218;-84
2022/05/31 02:49:26;;;;;;;1.10;1.10;;;12.20;99.90;;;;;;4897673;29;20235;-84
2022/05/31 02:51:55;;;;;;;1.35;1.25;;;12.20;99.90;;;;;;4897661;29;20214;-84
2022/05/31 02:54:24;;;;;;;1.30;1.30;;;12.20;99.90;;;;;;4897510;29;20239;-84
2022/05/31 02:56:53;;;;;;;1.10;1.10;;;12.10;99.90;;;;;;4897751;29;20274;-84
2022/05/31 02:59:21;;;;;;;2.00;1.10;;;12.00;99.90;;;;;;4897595;29;20317;-84
2022/05/31 03:01:50;;;;;;;1.40;1.30;;;12.00;99.90;;;;;;4897272;29;20294;-84
2022/05/31 03:04:20;;;;;;;1.50;1.40;;;12.00;99.90;;;;;;4897828;29;20235;-83
2022/05/31 03:06:48;;;;;;;1.48;1.33;;;12.00;99.90;;;;;;4897767;29;20270;-83
2022/05/31 03:09:17;;;;;;;1.98;1.63;;;11.90;99.90;;;;;;4897462;29;20241;-84
2022/05/31 03:11:52;;;;;;;1.60;1.45;;;11.90;99.90;;;;;;4897221;29;20215;-83
2022/05/31 03:14:24;;;;;;;1.00;1.00;;;11.80;99.90;;;;;;4901379;29;20285;-84
2022/05/31 03:16:59;;;;;;;1.17;1.15;;;11.80;99.90;;;;;;4902001;29;20215;-84
2022/05/31 03:19:32;;;;;;;1.10;1.10;;;11.80;99.90;;;;;;4901603;29;20308;-84
2022/05/31 03:22:04;;;;;;;1.38;1.27;;;11.80;99.90;;;;;;4901188;29;20221;-84
2022/05/31 03:24:38;;;;;;;1.20;1.20;;;11.70;99.90;;;;;;4901602;29;20237;-84
2022/05/31 03:27:11;;;;;;;1.02;1.02;;;11.70;99.90;;;;;;4901101;29;20302;-83
2022/05/31 03:29:45;;;;;;;1.25;1.15;;;11.70;99.90;;;;;;4901531;29;20417;-84
2022/05/31 03:32:15;;;;;;;2.85;1.38;;;11.70;99.90;;;;;;4900805;29;20289;-83
2022/05/31 03:34:44;;;;;;;1.60;1.50;;;11.70;99.90;;;;;;4901207;29;20238;-83
2022/05/31 03:37:12;;;;;;;1.55;1.45;;;11.80;99.90;;;;;;4900803;29;20306;-81
2022/05/31 03:39:41;;;;;;;1.67;1.58;;;11.80;99.90;;;;;;4900608;29;20238;-81
2022/05/31 03:42:11;;;;;;;1.60;1.50;;;11.80;99.90;;;;;;4900813;29;20263;-81
2022/05/31 03:44:39;;;;;;;3.45;1.83;;;11.80;99.90;;;;;;4901152;29;20260;-81
2022/05/31 03:47:07;;;;;;;1.58;1.48;;;11.90;99.90;;;;;;4900976;29;20290;-81
2022/05/31 03:49:36;;;;;;;1.73;1.63;;;11.90;99.90;;;;;;4900859;29;20317;-81
2022/05/31 03:52:05;;;;;;;7.07;2.03;;;11.90;99.90;;;;;;4900598;29;20211;-81
2022/05/31 03:54:36;;;;;;;1.67;1.58;;;12.00;99.90;;;;;;4900629;29;20282;-81
2022/05/31 03:57:05;;;;;;;1.48;1.38;;;12.00;99.90;;;;;;4900992;29;20219;-81
2022/05/31 03:59:37;;;;;;;3.15;2.33;;;12.10;99.90;;;;;;4900531;29;20231;-81
2022/05/31 04:02:06;;;;;;;1.50;1.40;;;12.10;99.90;;;;;;4900385;29;20301;-81
2022/05/31 04:04:35;;;;;;;1.75;1.65;;;12.20;99.90;;;;;;4900513;29;20318;-82
2022/05/31 04:07:03;;;;;;;1.85;1.58;;;12.20;99.90;;;;;;4900739;29;20219;-82
2022/05/31 04:09:32;;;;;;;1.85;1.75;;;12.20;99.90;;;;;;4900412;29;20239;-81
2022/05/31 04:12:00;;;;;;;2.00;1.90;;;12.30;99.90;;;;;;4900382;29;20222;-82
2022/05/31 04:14:28;;;;;;;3.00;2.20;;;12.30;99.90;;;;;;4900641;29;20207;-81
2022/05/31 04:17:00;;;;;;;3.65;2.33;;;12.40;99.90;;;;;;4900684;29;20215;-81
2022/05/31 04:19:29;;;;;;;1.73;1.63;;;12.40;99.90;;;;;;4900452;29;20255;-81
2022/05/31 04:21:58;;;;;;;1.83;1.73;;;12.50;99.90;;;;;;4900073;29;20217;-81
2022/05/31 04:24:26;;;;;;;2.50;1.77;;;12.50;99.90;;;;;;4900762;29;20231;-81
2022/05/31 04:26:54;;;;;;;2.38;2.20;;;12.50;99.90;;;;;;4900111;29;20298;-81
2022/05/31 04:29:23;;;;;;;2.50;2.28;;;12.60;99.90;;;;;;4900075;29;20231;-81
2022/05/31 04:31:51;;;;;;;3.70;2.22;;;12.70;99.90;;;;;;4899935;29;20294;-81
2022/05/31 04:34:21;;;;;;;2.63;2.42;;;12.70;99.90;;;;;;4900308;29;20270;-81
2022/05/31 04:36:49;;;;;;;2.55;2.35;;;12.80;99.90;;;;;;4900252;29;20320;-81
2022/05/31 04:39:17;;;;;;;2.10;1.88;;;12.80;99.90;;;;;;4899659;29;20245;-81
2022/05/31 04:41:46;;;;;;;2.10;1.90;;;12.90;99.90;;;;;;4899663;29;20249;-81
2022/05/31 04:44:17;;;;;;;2.10;1.88;;;12.90;99.90;;;;;;4900158;29;20247;-81
2022/05/31 04:46:48;;;;;;;2.13;1.83;;;12.90;99.90;;;;;;4899880;29;20219;-81
2022/05/31 04:49:16;;;;;;;2.42;2.22;;;12.90;99.90;;;;;;4899839;29;20239;-81
2022/05/31 04:51:46;;;;;;;2.45;2.30;;;12.90;99.90;;;;;;4899477;29;20298;-81
2022/05/31 04:54:16;;;;;;;1.75;1.65;;;12.90;99.90;;;;;;4899462;29;20215;-81
2022/05/31 04:56:45;;;;;;;2.05;1.95;;;12.90;99.90;;;;;;4899744;29;20207;-81
2022/05/31 04:59:14;;;;;;;2.92;2.47;;;13.00;99.90;;;;;;4899493;29;20322;-81
2022/05/31 05:01:42;;;;;;;2.38;2.17;;;13.00;99.90;;;;;;4899300;29;20218;-81
2022/05/31 05:04:10;;;;;;;2.78;2.58;;;13.00;99.90;;;;;;4899442;29;20259;-81
2022/05/31 05:06:39;;;;;;;3.38;2.08;;;13.10;99.90;;;;;;4899598;29;20203;-81
2022/05/31 05:09:08;;;;;;;2.10;1.92;;;13.10;99.90;;;;;;4899112;29;20235;-81
2022/05/31 05:11:37;;;;;;;2.38;1.80;;;13.20;99.90;;;;;;4899452;29;20299;-81
2022/05/31 05:14:05;;;;;;;4.30;2.17;;;13.30;99.90;;;;;;4899416;29;20275;-81
2022/05/31 05:16:33;;;;;;;1.65;1.55;;;13.40;99.90;;;;;;4899454;29;20219;-81
2022/05/31 05:19:02;;;;;;;2.58;1.90;;;13.40;99.90;;;;;;4899260;29;20322;-81
2022/05/31 05:21:30;;;;;;;2.40;2.13;;;13.50;99.90;;;;;;4899044;29;20215;-81
2022/05/31 05:23:58;;;;;;;2.83;1.95;;;13.60;99.90;;;;;;4899210;29;20295;-81
2022/05/31 05:26:28;;;;;;;2.55;2.35;;;13.60;99.90;;;;;;4899157;29;20219;-80
2022/05/31 05:31:42;;;;;;;2.13;1.90;;;13.70;99.90;;;;;;4898930;29;20211;-81
2022/05/31 05:34:10;;;;;;;2.20;2.10;;;13.80;99.90;;;;;;4898925;29;20223;-81
2022/05/31 05:36:38;;;;;;;1.90;1.80;;;13.80;99.90;;;;;;4898404;29;20294;-81
2022/05/31 05:39:10;;;;;;;2.13;1.80;;;13.90;99.90;;;;;;4898899;29;20246;-81
2022/05/31 05:41:41;;;;;;;1.90;1.80;;;14.00;99.90;;;;;;4898769;29;20286;-81
2022/05/31 05:44:10;;;;;;;2.58;2.17;;;14.00;99.90;;;;;;4898861;29;20293;-81
2022/05/31 05:46:39;;;;;;;2.20;2.00;;;14.00;99.90;;;;;;4898753;29;20280;-81
2022/05/31 05:49:07;;;;;;;2.70;2.15;;;14.10;99.90;;;;;;4898787;29;20254;-81
2022/05/31 05:51:36;;;;;;;2.88;2.67;;;14.20;99.90;;;;;;4898590;29;20292;-81
2022/05/31 05:54:04;;;;;;;3.63;3.30;;;14.30;99.90;;;;;;4898298;29;20266;-81
2022/05/31 05:56:32;;;;;;;3.35;3.03;;;14.40;99.90;;;;;;4898766;29;20219;-81
2022/05/31 05:59:02;;;;;;;3.33;3.13;;;14.40;99.90;;;;;;4898270;29;20317;-81
2022/05/31 06:01:35;;;;;;;5.35;3.03;;;14.40;99.90;;;;;;4898426;29;20215;-81
2022/05/31 06:04:28;;;;;;;4.53;3.03;;;14.40;99.90;;;;;;4898336;29;20207;-81
2022/05/31 06:07:06;;;;;;;4.22;3.03;;;14.50;99.90;;;;;;4898428;29;20229;-81
2022/05/31 06:09:36;;;;;;;3.65;2.85;;;14.60;99.90;;;;;;4898632;29;20306;-81
2022/05/31 06:12:08;;;;;;;2.97;2.55;;;14.70;99.90;;;;;;4897861;29;20274;-81
2022/05/31 06:14:43;;;;;;;4.28;2.30;;;14.80;99.90;;;;;;4898232;29;20302;-81
2022/05/31 06:17:14;;;;;;;2.78;2.05;;;14.90;99.90;;;;;;4898638;29;20207;-81
2022/05/31 06:19:48;;;;;;;2.05;1.80;;;15.00;99.90;;;;;;4898057;29;20452;-81
2022/05/31 06:22:16;;;;;;;1.80;1.52;;;15.10;99.90;;;;;;4898180;29;20215;-82
2022/05/31 06:24:45;;;;;;;2.00;1.85;;;15.10;99.90;;;;;;4897794;29;20310;-82
2022/05/31 06:27:14;;;;;;;1.95;1.63;;;15.20;99.90;;;;;;4898024;29;20302;-82
2022/05/31 06:29:43;;;;;;;3.70;2.15;;;15.30;99.90;;;;;;4898009;29;20227;-82
2022/05/31 06:32:12;;;;;;;1.67;1.58;;;15.40;99.90;;;;;;4897869;29;20213;-82
2022/05/31 06:34:40;;;;;;;1.80;1.48;;;15.50;99.90;;;;;;4898043;29;20203;-82
2022/05/31 06:37:10;;;;;;;1.27;1.08;;;15.60;99.90;;;;;;4897948;29;20282;-81
2022/05/31 06:39:41;;;;;;;1.33;1.17;;;15.60;99.90;;;;;;4897567;29;20241;-81
2022/05/31 06:42:11;;;;;;;1.88;1.20;;;15.70;99.90;;;;;;4897739;29;20257;-81
2022/05/31 06:44:41;;;;;;;3.50;1.60;;;15.70;99.90;;;;;;4898083;29;20212;-81
2022/05/31 06:47:12;;;;;;;2.08;1.48;;;15.70;99.90;;;;;;4896929;29;20287;-81
2022/05/31 06:49:41;;;;;;;2.17;1.27;;;15.80;99.90;;;;;;4897705;29;20269;-81
2022/05/31 06:57:45;;;;;;;1.60;1.50;;;16.50;99.90;;;;;;4897896;29;20238;-81
2022/05/31 07:00:16;;;;;;;2.25;1.35;;;16.80;99.90;;;;;;4897432;29;20318;-81
2022/05/31 07:02:46;;;;;;;1.48;1.38;;;17.00;99.90;;;;;;4897545;29;20274;-81
2022/05/31 07:05:15;;;;;;;1.67;1.58;;;17.30;99.90;;;;;;4897393;29;20231;-81
2022/05/31 07:07:44;;;;;;;1.42;1.33;;;17.60;99.90;;;;;;4897634;29;20217;-81
2022/05/31 07:10:12;;;;;;;1.23;1.13;;;17.70;99.90;;;;;;4897285;29;20231;-81
2022/05/31 07:12:42;;;;;;;1.10;1.10;;;17.80;99.90;;;;;;4897555;29;20305;-81
2022/05/31 07:15:11;;;;;;;1.58;1.35;;;18.20;99.90;;;;;;4897523;29;20303;-81
2022/05/31 07:17:39;;;;;;;2.97;1.33;;;18.40;99.90;;;;;;4897891;29;20291;-81
2022/05/31 07:20:10;;;;;;;1.80;1.40;;;18.80;99.90;;;;;;4897001;29;20294;-81
2022/05/31 07:22:39;;;;;;;1.30;1.20;;;19.30;99.10;;;;;;4897821;29;20222;-82
2022/05/31 07:25:09;;;;;;;1.02;1.02;;;19.90;98.20;;;;;;4897476;29;20207;-81
2022/05/31 07:27:38;;;;;;;1.00;1.00;;;20.90;96.30;;;;;;4897534;29;20211;-81
2022/05/31 07:30:08;;;;;;;1.85;1.10;;;21.20;92.90;;;;;;4897439;29;20262;-81
2022/05/31 07:32:36;;;;;;;1.00;1.00;;;21.20;92.90;;;;;;4896899;29;20270;-82
2022/05/31 07:35:26;;;;;;;1.15;1.00;;;21.90;91.40;;;;;;4897125;29;20221;-82
2022/05/31 07:37:54;;;;;;;1.08;0.90;;;22.70;89.70;;;;;;4897523;29;20290;-81
2022/05/31 07:40:22;;;;;;;0.98;0.90;;;23.90;87.20;;;;;;4897569;29;20254;-82
2022/05/31 07:42:50;;;;;;;1.10;1.10;;;24.70;83.30;;;;;;4897378;29;20230;-81
2022/05/31 07:45:19;;;;;;;1.60;1.50;;;26.00;77.30;;;;;;4897289;29;20307;-82
2022/05/31 07:47:47;;;;;;;1.20;1.20;;;26.80;72.40;;;;;;4897039;29;20211;-81
2022/05/31 07:50:15;;;;;;;2.08;1.30;;;27.90;69.50;;;;;;4897116;29;20239;-82
2022/05/31 07:52:45;;;;;;;1.27;1.17;;;28.30;65.70;;;;;;4897443;29;20211;-82
2022/05/31 07:55:13;;;;;;;0.93;0.93;;;29.10;64.20;;;;;;4896881;29;20291;-82
2022/05/31 08:00:28;;;;;;;1.52;1.42;;;30.20;57.30;;;;;;4900601;29;20277;-82
2022/05/31 08:02:56;;;;;;;1.60;1.48;;;30.50;57.10;;;;;;4900571;29;20290;-82
2022/05/31 08:05:24;;;;;;;0.95;0.95;;;30.30;57.40;;;;;;4900456;29;20219;-82
2022/05/31 08:07:54;;;;;;;1.63;1.23;;;31.20;55.80;;;;;;4900592;29;20327;-82
2022/05/31 08:10:43;;;;;;;0.95;0.95;;;30.50;54.80;;;;;;4900334;29;20211;-82
2022/05/31 08:13:11;;;;;;;2.05;1.52;;;30.00;55.20;;;;;;4900578;29;20289;-82
2022/05/31 08:15:39;;;;;;;3.25;1.88;;;30.30;54.90;;;;;;4900324;29;20270;-82
2022/05/31 08:18:08;;;;;;;1.45;1.35;;;30.80;54.30;;;;;;4899917;29;20221;-82
2022/05/31 08:20:38;;;;;;;1.40;1.30;;;30.80;53.00;;;;;;4900214;29;20230;-82
2022/05/31 08:23:10;;;;;;;1.42;1.35;;;31.30;53.70;;;;;;4900528;29;20214;-82
2022/05/31 08:25:38;;;;;;;1.70;1.60;;;31.40;52.70;;;;;;4900500;29;20274;-82
2022/05/31 08:28:07;;;;;;;1.40;1.30;;;30.90;53.40;;;;;;4900253;29;20224;-82
2022/05/31 08:30:36;;;;;;;1.35;1.27;;;30.70;53.10;;;;;;4899933;29;20207;-82
2022/05/31 08:33:04;;;;;;;1.52;1.40;;;29.80;54.30;;;;;;4899968;29;20226;-82
2022/05/31 08:35:32;;;;;;;1.60;1.50;;;30.40;55.10;;;;;;4900120;29;20304;-82
2022/05/31 08:38:24;;;;;;;2.08;1.25;;;31.50;53.40;;;;;;4900361;29;20207;-82
2022/05/31 08:41:06;;;;;;;1.77;1.67;;;32.40;52.60;;;;;;4900183;29;20310;-82
2022/05/31 08:43:51;;;;;;;1.90;1.80;;;33.10;51.20;;;;;;4900024;29;20229;-82
2022/05/31 08:46:30;;;;;;;10.82;2.13;;;33.80;50.30;;;;;;4899951;29;20241;-82
2022/05/31 08:49:00;;;;;;;1.80;1.70;;;33.80;51.20;;;;;;4900089;29;20235;-82
2022/05/31 08:51:55;;;;;;;2.25;1.85;;;34.00;51.10;;;;;;4899791;29;20289;-82
2022/05/31 08:57:40;;;;;;;1.95;1.85;;;31.40;53.90;;;;;;4899627;29;20291;-82
2022/05/31 09:00:32;;;;;;;2.65;2.42;;;31.50;54.60;;;;;;4899641;29;20238;-82
2022/05/31 09:03:09;;;;;;;1.67;1.58;;;32.00;53.70;;;;;;4899653;29;20285;-82
2022/05/31 09:05:42;;;;;;;2.83;1.67;;;31.90;53.60;;;;;;4899584;29;20293;-82
2022/05/31 09:08:19;;;;;;;1.83;1.55;;;31.70;53.30;;;;;;4899043;29;20245;-82
2022/05/31 09:10:53;;;;;;;2.42;1.75;;;30.50;53.70;;;;;;4898466;29;20297;-82
2022/05/31 09:13:28;;;;;;;1.55;1.45;;;30.70;55.60;;;;;;4899509;29;20261;-82
2022/05/31 09:16:00;;;;;;;1.80;1.70;;;31.60;54.90;;;;;;4899379;29;20352;-82
2022/05/31 09:18:42;;;;;;;1.38;1.27;;;31.10;54.60;;;;;;4899077;29;20206;-82
2022/05/31 09:21:18;;;;;;;1.30;1.20;;;31.30;54.10;;;;;;4899388;29;20226;-82
2022/05/31 09:23:46;;;;;;;1.05;1.05;;;31.60;53.70;;;;;;4899363;29;20213;-82
2022/05/31 09:26:38;;;;;;;1.25;1.15;;;31.80;52.90;;;;;;4899084;29;20266;-82
2022/05/31 09:29:13;;;;;;;1.58;1.48;;;30.50;53.20;;;;;;4899172;29;20238;-81
2022/05/31 09:31:53;;;;;;;1.30;1.20;;;30.10;54.20;;;;;;4898931;29;20210;-82
2022/05/31 09:34:39;;;;;;;1.15;1.05;;;30.50;55.10;;;;;;4899301;29;20221;-81
2022/05/31 09:37:16;;;;;;;1.10;1.10;;;30.50;52.30;;;;;;4898594;29;20230;-82
2022/05/31 09:39:57;;;;;;;1.02;1.02;;;30.40;52.00;;;;;;4899017;29;20249;-82
2022/05/31 09:42:35;;;;;;;2.60;1.27;;;29.80;52.20;;;;;;4899133;29;20298;-82
2022/05/31 09:45:08;;;;;;;1.20;1.13;;;29.00;51.90;;;;;;4898931;29;20266;-82
2022/05/31 09:47:36;;;;;;;1.27;1.20;;;28.90;53.40;;;;;;4898599;29;20231;-82
2022/05/31 09:50:05;;;;;;;0.95;0.95;;;28.60;54.20;;;;;;4898809;29;20226;-82
2022/05/31 09:52:38;;;;;;;1.10;1.10;;;28.60;54.40;;;;;;4898698;29;20298;-82
2022/05/31 09:58:01;;;;;;;1.08;1.08;;;29.20;53.60;;;;;;4898693;29;20290;-82
2022/05/31 10:00:30;;;;;;;1.40;1.30;;;29.50;52.50;;;;;;4898618;29;20310;-81
2022/05/31 10:03:04;;;;;;;2.15;1.20;;;28.90;52.10;;;;;;4898790;29;20294;-82
2022/05/31 10:05:32;;;;;;;1.23;1.20;;;28.90;52.60;;;;;;4898440;29;20207;-82
2022/05/31 10:08:01;;;;;;;2.38;1.50;;;28.50;53.10;;;;;;4898083;29;20223;-82
2022/05/31 10:10:33;;;;;;;1.15;1.05;;;28.40;54.20;;;;;;4898057;29;20287;-82
2022/05/31 10:13:08;;;;;;;1.42;1.33;;;28.50;54.80;;;;;;4898295;29;20210;-82
2022/05/31 10:15:50;;;;;;;1.23;1.20;;;28.90;53.10;;;;;;4898296;29;20301;-82
2022/05/31 10:18:27;;;;;;;1.20;1.20;;;28.80;53.90;;;;;;4898137;29;20239;-82
2022/05/31 10:20:58;;;;;;;1.15;1.15;;;28.10;54.10;;;;;;4898201;29;20206;-82
2022/05/31 10:23:35;;;;;;;1.40;1.30;;;28.30;54.60;;;;;;4898339;29;20289;-81
2022/05/31 10:26:04;;;;;;;1.55;1.42;;;29.00;54.70;;;;;;4898485;29;20290;-82
2022/05/31 10:28:41;;;;;;;1.02;1.02;;;29.30;53.30;;;;;;4898062;29;20227;-82
2022/05/31 10:31:19;;;;;;;1.52;1.42;;;29.50;53.80;;;;;;4897769;29;20219;-81
2022/05/31 10:33:55;;;;;;;1.20;1.20;;;29.70;53.00;;;;;;4897996;29;20232;-81
2022/05/31 10:36:25;;;;;;;0.95;0.95;;;29.60;53.10;;;;;;4886922;29;20221;-82
2022/05/31 10:38:55;;;;;;;1.50;1.40;;;29.70;53.30;;;;;;4878612;29;20303;-83
2022/05/31 10:41:28;;;;;;;1.10;1.10;;;30.20;53.60;;;;;;4879554;29;20214;-83
2022/05/31 10:44:26;;;;;;;1.25;1.17;;;30.30;52.50;;;;;;4878935;29;20219;-83
2022/05/31 10:47:00;;;;;;;2.58;1.30;;;29.30;54.10;;;;;;4879301;29;20210;-83
2022/05/31 10:49:28;;;;;;;1.48;1.38;;;29.10;55.00;;;;;;4878513;29;20242;-84
2022/05/31 10:52:06;;;;;;;2.60;1.40;;;29.80;54.00;;;;;;4889886;29;20270;-83
2022/05/31 10:55:01;;;;;;;1.48;1.38;;;30.40;52.60;;;;;;4897205;29;20239;-84
2022/05/31 10:57:45;;;;;;;1.60;1.50;;;30.70;52.70;;;;;;4897599;29;20302;-83
2022/05/31 11:00:20;;;;;;;1.23;1.10;;;31.10;53.10;;;;;;4897264;29;20314;-83
2022/05/31 11:03:17;;;;;;;1.20;1.10;;;31.80;52.50;;;;;;4897106;29;20247;-84
2022/05/31 11:05:56;;;;;;;3.80;1.38;;;31.50;51.20;;;;;;4897487;29;20278;-84
2022/05/31 11:11:43;;;;;;;1.08;0.98;;;30.20;53.10;;;;;;4897079;29;20298;-83
2022/05/31 11:14:32;;;;;;;1.38;1.27;;;30.50;52.90;;;;;;4897455;29;20294;-83
2022/05/31 11:17:15;;;;;;;0.90;0.90;;;30.60;52.20;;;;;;4897446;29;20215;-84
2022/05/31 11:19:53;;;;;;;2.45;1.15;;;30.70;52.20;;;;;;4897240;29;20334;-84
2022/05/31 11:22:36;;;;;;;1.10;1.10;;;30.60;51.60;;;;;;4897240;29;20210;-84
2022/05/31 11:25:22;;;;;;;1.10;1.10;;;30.40;51.80;;;;;;4897500;29;20302;-84
2022/05/31 11:28:02;;;;;;;1.13;1.13;;;30.30;52.20;;;;;;4897404;29;20308;-84
2022/05/31 11:30:37;;;;;;;1.10;1.10;;;30.60;52.20;;;;;;4897515;29;20306;-84
2022/05/31 11:33:36;;;;;;;3.67;1.60;;;31.10;53.20;;;;;;4897493;29;20261;-84
2022/05/31 11:36:17;;;;;;;7.63;1.48;;;31.30;51.50;;;;;;4901052;29;20271;-84
2022/05/31 11:39:08;;;;;;;1.48;1.38;;;31.20;51.90;;;;;;4900470;29;20290;-84
2022/05/31 11:41:44;;;;;;;1.20;1.17;;;30.90;52.20;;;;;;4901033;29;20262;-84
2022/05/31 11:45:06;;;;;;;1.33;1.23;;;31.00;52.50;;;;;;4901026;29;20210;-84
2022/05/31 11:47:50;;;;;;;1.48;1.27;;;31.20;52.70;;;;;;4842843;29;20277;-84
2022/05/31 11:50:29;;;;;;;1.60;1.50;;;31.40;52.30;;;;;;4842859;29;20244;-83
2022/05/31 11:53:19;;;;;;;1.40;1.30;;;31.50;52.80;;;;;;4879580;29;20217;-83
2022/05/31 11:55:50;;;;;;;1.52;1.30;;;31.20;52.40;;;;;;4901069;29;20242;-84
2022/05/31 11:58:25;;;;;;;1.23;1.13;;;30.70;52.80;;;;;;4900671;29;20242;-84
2022/05/31 12:01:03;;;;;;;2.65;1.17;;;30.20;54.40;;;;;;4900476;29;20215;-84
2022/05/31 12:03:37;;;;;;;1.08;1.02;;;30.10;55.60;;;;;;4900944;29;20298;-84
2022/05/31 12:06:13;;;;;;;1.40;1.30;;;30.40;54.40;;;;;;4900531;29;20215;-84
2022/05/31 12:08:47;;;;;;;1.13;1.13;;;30.30;54.30;;;;;;4900579;29;20239;-84
2022/05/31 12:11:21;;;;;;;1.40;1.30;;;30.30;54.20;;;;;;4900532;29;20215;-84
2022/05/31 12:13:52;;;;;;;1.55;1.40;;;30.50;54.90;;;;;;4900518;29;20277;-84
2022/05/31 12:16:21;;;;;;;1.48;1.38;;;30.60;53.70;;;;;;4900166;29;20223;-84
2022/05/31 12:18:58;;;;;;;1.88;1.50;;;30.70;53.90;;;;;;4900258;29;20261;-84
2022/05/31 12:21:35;;;;;;;1.40;1.30;;;30.30;54.30;;;;;;4899961;29;20227;-84
2022/05/31 12:24:10;;;;;;;2.25;1.45;;;29.70;54.80;;;;;;4900114;29;20293;-84
2022/05/31 12:26:48;;;;;;;1.70;1.40;;;29.20;55.40;;;;;;4900252;29;20237;-84
2022/05/31 12:29:22;;;;;;;1.60;1.50;;;29.40;55.10;;;;;;4899832;29;20239;-84
2022/05/31 12:31:50;;;;;;;1.10;1.10;;;29.60;55.60;;;;;;4899858;29;20227;-84
2022/05/31 12:34:39;;;;;;;1.30;1.20;;;29.70;55.00;;;;;;4899508;29;20223;-84
2022/05/31 12:37:12;;;;;;;1.40;1.30;;;29.20;55.50;;;;;;4899654;29;20211;-84
2022/05/31 12:39:42;;;;;;;1.70;1.23;;;29.40;55.50;;;;;;4900148;29;20314;-84
2022/05/31 12:42:40;;;;;;;1.67;1.30;;;29.50;54.30;;;;;;4898869;29;20466;-85
2022/05/31 12:45:24;;;;;;;1.40;1.30;;;29.40;54.50;;;;;;4886982;29;20298;-85
2022/05/31 12:47:55;;;;;;;1.13;1.13;;;29.50;55.50;;;;;;4900725;29;20307;-85
2022/05/31 12:50:48;;;;;;;1.88;1.30;;;29.70;55.00;;;;;;4896690;29;20231;-85
2022/05/31 12:53:22;;;;;;;1.85;1.50;;;29.40;53.70;;;;;;4900422;29;20300;-85
2022/05/31 12:55:55;;;;;;;9.70;1.33;;;29.00;54.40;;;;;;4900335;29;20241;-85
2022/05/31 12:58:49;;;;;;;1.13;1.02;;;28.80;54.60;;;;;;4899781;29;20293;-85
2022/05/31 13:01:57;;;;;;;2.42;1.10;;;28.50;54.30;;;;;;4900032;29;20268;-85
2022/05/31 13:04:28;;;;;;;3.70;1.52;;;28.40;54.90;;;;;;4900029;29;20211;-85
2022/05/31 13:07:19;;;;;;;1.50;1.15;;;28.30;55.70;;;;;;4899912;29;20206;-85
2022/05/31 13:09:49;;;;;;;2.40;1.38;;;28.40;54.90;;;;;;4899983;29;20314;-85
2022/05/31 13:21:11;;;;;;;4.25;1.30;;;28.20;55.20;;;;;;4900177;29;20245;-85
2022/05/31 13:24:08;;;;;;;1.17;1.15;;;28.10;54.30;;;;;;4899732;29;20303;-85
2022/05/31 13:26:38;;;;;;;1.30;1.20;;;28.30;54.50;;;;;;4899926;29;20215;-84
2022/05/31 13:29:09;;;;;;;1.00;1.00;;;28.50;54.90;;;;;;4897896;29;20254;-83
2022/05/31 13:31:49;;;;;;;1.10;1.10;;;28.50;54.90;;;;;;4895882;29;20263;-84
2022/05/31 13:34:28;;;;;;;1.02;1.02;;;28.40;54.80;;;;;;4885895;29;20203;-83
2022/05/31 13:36:57;;;;;;;1.38;1.15;;;28.10;54.70;;;;;;4883662;29;20222;-81
2022/05/31 13:39:39;;;;;;;1.23;1.23;;;28.20;54.80;;;;;;4899537;29;20231;-83
2022/05/31 13:42:18;;;;;;;1.65;1.25;;;28.20;55.30;;;;;;4899678;29;20215;-83
2022/05/31 13:44:52;;;;;;;1.15;1.05;;;28.30;54.60;;;;;;4899836;29;20212;-82
2022/05/31 13:47:22;;;;;;;1.52;1.42;;;28.10;54.60;;;;;;4899341;29;20215;-83